sensor_id;sensor_type;location;lat;lon;timestamp;temperature;humidity
16074;DHT22;8141;52.664;5.074;2023-03-22T00:01:08;19.40;53.80
16074;DHT22;8141;52.664;5.074;2023-03-22T00:03:35;19.40;53.80
16074;DHT22;8141;52.664;5.074;2023-03-22T00:06:00;19.40;53.80
16074;DHT22;8141;52.664;5.074;2023-03-22T00:08:26;19.40;53.80
16074;DHT22;8141;52.664;5.074;2023-03-22T00:10:52;19.40;53.90
16074;DHT22;8141;52.664;5.074;2023-03-22T00:13:17;19.40;53.90
16074;DHT22;8141;52.664;5.074;2023-03-22T00:15:43;19.50;53.90
16074;DHT22;8141;52.664;5.074;2023-03-22T00:18:10;19.40;53.80
16074;DHT22;8141;52.664;5.074;2023-03-22T00:20:36;19.40;53.80
16074;DHT22;8141;52.664;5.074;2023-03-22T00:23:03;19.40;53.80
16074;DHT22;8141;52.664;5.074;2023-03-22T00:25:29;19.50;53.80
16074;DHT22;8141;52.664;5.074;2023-03-22T00:27:55;19.50;53.90
16074;DHT22;8141;52.664;5.074;2023-03-22T00:30:21;19.50;53.90
16074;DHT22;8141;52.664;5.074;2023-03-22T00:32:47;19.50;53.90
16074;DHT22;8141;52.664;5.074;2023-03-22T00:35:12;19.50;54.00
16074;DHT22;8141;52.664;5.074;2023-03-22T00:37:38;19.50;54.00
16074;DHT22;8141;52.664;5.074;2023-03-22T00:40:04;19.50;53.90
16074;DHT22;8141;52.664;5.074;2023-03-22T00:42:35;19.50;53.90
16074;DHT22;8141;52.664;5.074;2023-03-22T00:45:01;19.60;54.10
16074;DHT22;8141;52.664;5.074;2023-03-22T00:47:27;19.50;54.60
16074;DHT22;8141;52.664;5.074;2023-03-22T00:49:52;19.50;54.00
16074;DHT22;8141;52.664;5.074;2023-03-22T00:52:18;19.50;54.00
16074;DHT22;8141;52.664;5.074;2023-03-22T00:54:44;19.50;54.00
16074;DHT22;8141;52.664;5.074;2023-03-22T00:57:09;19.50;54.00
16074;DHT22;8141;52.664;5.074;2023-03-22T00:59:37;19.50;54.00
16074;DHT22;8141;52.664;5.074;2023-03-22T01:02:03;19.50;53.90
16074;DHT22;8141;52.664;5.074;2023-03-22T01:04:30;19.60;54.10
16074;DHT22;8141;52.664;5.074;2023-03-22T01:06:56;19.60;54.10
16074;DHT22;8141;52.664;5.074;2023-03-22T01:09:28;19.60;54.20
16074;DHT22;8141;52.664;5.074;2023-03-22T01:11:56;19.60;54.10
16074;DHT22;8141;52.664;5.074;2023-03-22T01:14:23;19.60;54.10
16074;DHT22;8141;52.664;5.074;2023-03-22T01:16:50;19.60;54.10
16074;DHT22;8141;52.664;5.074;2023-03-22T01:19:19;19.60;54.10
16074;DHT22;8141;52.664;5.074;2023-03-22T01:21:45;19.60;54.10
16074;DHT22;8141;52.664;5.074;2023-03-22T01:24:11;19.60;54.10
16074;DHT22;8141;52.664;5.074;2023-03-22T01:26:37;19.60;54.20
16074;DHT22;8141;52.664;5.074;2023-03-22T01:29:03;19.60;54.20
16074;DHT22;8141;52.664;5.074;2023-03-22T01:31:29;19.60;54.20
16074;DHT22;8141;52.664;5.074;2023-03-22T01:33:55;19.60;54.20
16074;DHT22;8141;52.664;5.074;2023-03-22T01:36:20;19.60;54.20
16074;DHT22;8141;52.664;5.074;2023-03-22T01:38:46;19.60;54.20
16074;DHT22;8141;52.664;5.074;2023-03-22T01:41:12;19.60;54.20
16074;DHT22;8141;52.664;5.074;2023-03-22T01:43:37;19.60;54.20
16074;DHT22;8141;52.664;5.074;2023-03-22T01:46:03;19.60;54.20
16074;DHT22;8141;52.664;5.074;2023-03-22T01:48:29;19.60;54.20
16074;DHT22;8141;52.664;5.074;2023-03-22T01:53:44;19.60;54.20
16074;DHT22;8141;52.664;5.074;2023-03-22T01:56:12;19.60;54.20
16074;DHT22;8141;52.664;5.074;2023-03-22T01:58:38;19.60;54.20
16074;DHT22;8141;52.664;5.074;2023-03-22T02:01:05;19.60;54.20
16074;DHT22;8141;52.664;5.074;2023-03-22T02:06:37;19.70;54.30
16074;DHT22;8141;52.664;5.074;2023-03-22T02:09:10;19.60;54.20
16074;DHT22;8141;52.664;5.074;2023-03-22T02:11:37;19.70;54.30
16074;DHT22;8141;52.664;5.074;2023-03-22T02:23:04;19.60;54.20
16074;DHT22;8141;52.664;5.074;2023-03-22T02:53:03;19.70;54.30
16074;DHT22;8141;52.664;5.074;2023-03-22T03:00:49;19.70;54.50
16074;DHT22;8141;52.664;5.074;2023-03-22T03:03:17;19.70;54.50
16074;DHT22;8141;52.664;5.074;2023-03-22T03:05:45;19.70;54.50
16074;DHT22;8141;52.664;5.074;2023-03-22T03:08:13;19.70;54.50
16074;DHT22;8141;52.664;5.074;2023-03-22T03:10:40;19.70;54.50
16074;DHT22;8141;52.664;5.074;2023-03-22T03:13:09;19.70;54.40
16074;DHT22;8141;52.664;5.074;2023-03-22T03:15:37;19.70;54.50
16074;DHT22;8141;52.664;5.074;2023-03-22T03:29:16;19.70;54.50
16074;DHT22;8141;52.664;5.074;2023-03-22T03:31:58;19.70;54.40
16074;DHT22;8141;52.664;5.074;2023-03-22T03:34:31;19.70;54.40
16074;DHT22;8141;52.664;5.074;2023-03-22T03:37:10;19.70;54.50
16074;DHT22;8141;52.664;5.074;2023-03-22T03:40:07;19.70;54.50
16074;DHT22;8141;52.664;5.074;2023-03-22T03:42:39;19.70;54.50
16074;DHT22;8141;52.664;5.074;2023-03-22T03:45:08;19.70;54.50
16074;DHT22;8141;52.664;5.074;2023-03-22T03:47:34;19.70;54.50
16074;DHT22;8141;52.664;5.074;2023-03-22T03:50:01;19.80;54.60
16074;DHT22;8141;52.664;5.074;2023-03-22T03:52:27;19.80;54.60
16074;DHT22;8141;52.664;5.074;2023-03-22T03:54:53;19.70;54.50
16074;DHT22;8141;52.664;5.074;2023-03-22T03:57:19;19.80;54.50
16074;DHT22;8141;52.664;5.074;2023-03-22T03:59:45;19.80;54.50
16074;DHT22;8141;52.664;5.074;2023-03-22T04:02:10;19.80;54.50
16074;DHT22;8141;52.664;5.074;2023-03-22T04:04:36;19.70;54.60
16074;DHT22;8141;52.664;5.074;2023-03-22T04:07:03;19.80;54.60
16074;DHT22;8141;52.664;5.074;2023-03-22T04:09:31;19.70;54.60
16074;DHT22;8141;52.664;5.074;2023-03-22T04:11:57;19.80;54.60
16074;DHT22;8141;52.664;5.074;2023-03-22T04:14:23;19.80;54.70
16074;DHT22;8141;52.664;5.074;2023-03-22T04:16:50;19.80;54.60
16074;DHT22;8141;52.664;5.074;2023-03-22T04:19:16;19.80;54.60
16074;DHT22;8141;52.664;5.074;2023-03-22T04:21:42;19.80;54.60
16074;DHT22;8141;52.664;5.074;2023-03-22T04:24:09;19.80;55.20
16074;DHT22;8141;52.664;5.074;2023-03-22T04:26:34;19.80;54.60
16074;DHT22;8141;52.664;5.074;2023-03-22T04:29:00;19.80;54.70
16074;DHT22;8141;52.664;5.074;2023-03-22T04:31:28;19.80;54.60
16074;DHT22;8141;52.664;5.074;2023-03-22T04:33:54;19.80;54.60
16074;DHT22;8141;52.664;5.074;2023-03-22T04:36:24;19.80;54.60
16074;DHT22;8141;52.664;5.074;2023-03-22T04:38:50;19.80;54.70
16074;DHT22;8141;52.664;5.074;2023-03-22T04:41:16;19.80;54.60
16074;DHT22;8141;52.664;5.074;2023-03-22T04:43:42;19.80;54.70
16074;DHT22;8141;52.664;5.074;2023-03-22T04:46:11;19.80;54.70
16074;DHT22;8141;52.664;5.074;2023-03-22T04:48:38;19.80;54.70
16074;DHT22;8141;52.664;5.074;2023-03-22T04:51:05;19.80;54.70
16074;DHT22;8141;52.664;5.074;2023-03-22T04:53:32;19.80;54.70
16074;DHT22;8141;52.664;5.074;2023-03-22T04:56:10;19.80;54.70
16074;DHT22;8141;52.664;5.074;2023-03-22T04:58:37;19.80;54.60
16074;DHT22;8141;52.664;5.074;2023-03-22T05:01:07;19.80;54.70
16074;DHT22;8141;52.664;5.074;2023-03-22T05:03:33;19.80;54.80
16074;DHT22;8141;52.664;5.074;2023-03-22T05:06:00;19.80;54.80
16074;DHT22;8141;52.664;5.074;2023-03-22T05:08:26;19.80;54.70
16074;DHT22;8141;52.664;5.074;2023-03-22T05:10:54;19.80;54.70
16074;DHT22;8141;52.664;5.074;2023-03-22T05:13:20;19.80;55.30
16074;DHT22;8141;52.664;5.074;2023-03-22T05:15:48;19.80;54.80
16074;DHT22;8141;52.664;5.074;2023-03-22T05:18:14;19.80;54.80
16074;DHT22;8141;52.664;5.074;2023-03-22T05:20:41;19.80;54.90
16074;DHT22;8141;52.664;5.074;2023-03-22T05:23:07;19.80;54.80
16074;DHT22;8141;52.664;5.074;2023-03-22T05:25:34;19.80;54.80
16074;DHT22;8141;52.664;5.074;2023-03-22T05:28:01;19.80;54.90
16074;DHT22;8141;52.664;5.074;2023-03-22T05:30:27;19.80;54.80
16074;DHT22;8141;52.664;5.074;2023-03-22T05:33:01;19.80;54.80
16074;DHT22;8141;52.664;5.074;2023-03-22T05:35:29;19.80;54.80
16074;DHT22;8141;52.664;5.074;2023-03-22T05:37:56;19.80;54.80
16074;DHT22;8141;52.664;5.074;2023-03-22T05:40:22;19.80;54.90
16074;DHT22;8141;52.664;5.074;2023-03-22T05:42:48;19.80;54.90
16074;DHT22;8141;52.664;5.074;2023-03-22T05:45:14;19.90;54.80
16074;DHT22;8141;52.664;5.074;2023-03-22T05:47:40;19.80;54.90
16074;DHT22;8141;52.664;5.074;2023-03-22T05:50:06;19.80;54.90
16074;DHT22;8141;52.664;5.074;2023-03-22T05:52:33;19.80;54.80
16074;DHT22;8141;52.664;5.074;2023-03-22T05:54:58;19.80;54.80
16074;DHT22;8141;52.664;5.074;2023-03-22T05:57:24;19.80;54.90
16074;DHT22;8141;52.664;5.074;2023-03-22T05:59:50;19.80;54.90
16074;DHT22;8141;52.664;5.074;2023-03-22T06:02:18;19.80;54.80
16074;DHT22;8141;52.664;5.074;2023-03-22T06:04:45;19.80;54.80
16074;DHT22;8141;52.664;5.074;2023-03-22T06:07:11;19.90;54.90
16074;DHT22;8141;52.664;5.074;2023-03-22T06:09:37;19.80;54.90
16074;DHT22;8141;52.664;5.074;2023-03-22T06:12:03;19.90;54.90
16074;DHT22;8141;52.664;5.074;2023-03-22T06:14:28;19.80;54.80
16074;DHT22;8141;52.664;5.074;2023-03-22T06:16:54;19.80;54.90
16074;DHT22;8141;52.664;5.074;2023-03-22T06:19:20;19.90;55.00
16074;DHT22;8141;52.664;5.074;2023-03-22T06:21:46;19.80;54.90
16074;DHT22;8141;52.664;5.074;2023-03-22T06:24:11;19.90;55.00
16074;DHT22;8141;52.664;5.074;2023-03-22T06:26:37;19.80;55.00
16074;DHT22;8141;52.664;5.074;2023-03-22T06:29:03;19.90;55.00
16074;DHT22;8141;52.664;5.074;2023-03-22T06:31:28;19.90;55.00
16074;DHT22;8141;52.664;5.074;2023-03-22T06:33:54;19.90;55.00
16074;DHT22;8141;52.664;5.074;2023-03-22T06:36:20;19.90;55.00
16074;DHT22;8141;52.664;5.074;2023-03-22T06:38:46;19.90;55.00
16074;DHT22;8141;52.664;5.074;2023-03-22T06:41:12;19.90;55.00
16074;DHT22;8141;52.664;5.074;2023-03-22T06:43:37;19.90;55.00
16074;DHT22;8141;52.664;5.074;2023-03-22T06:46:03;19.80;55.00
16074;DHT22;8141;52.664;5.074;2023-03-22T06:48:29;19.90;55.00
16074;DHT22;8141;52.664;5.074;2023-03-22T06:50:54;19.90;55.00
16074;DHT22;8141;52.664;5.074;2023-03-22T06:53:20;19.90;55.10
16074;DHT22;8141;52.664;5.074;2023-03-22T06:55:46;19.90;55.10
16074;DHT22;8141;52.664;5.074;2023-03-22T06:58:11;19.90;55.00
16074;DHT22;8141;52.664;5.074;2023-03-22T07:00:37;19.90;55.00
16074;DHT22;8141;52.664;5.074;2023-03-22T07:03:03;19.90;55.10
16074;DHT22;8141;52.664;5.074;2023-03-22T07:05:29;19.90;55.10
16074;DHT22;8141;52.664;5.074;2023-03-22T07:07:55;19.90;55.10
16074;DHT22;8141;52.664;5.074;2023-03-22T07:10:20;19.90;55.10
16074;DHT22;8141;52.664;5.074;2023-03-22T07:12:46;19.90;55.10
16074;DHT22;8141;52.664;5.074;2023-03-22T07:15:12;19.90;55.10
16074;DHT22;8141;52.664;5.074;2023-03-22T07:17:37;19.90;55.10
16074;DHT22;8141;52.664;5.074;2023-03-22T07:20:03;19.90;55.00
16074;DHT22;8141;52.664;5.074;2023-03-22T07:22:29;19.90;55.10
16074;DHT22;8141;52.664;5.074;2023-03-22T07:24:55;19.90;55.10
16074;DHT22;8141;52.664;5.074;2023-03-22T07:27:20;19.90;55.10
16074;DHT22;8141;52.664;5.074;2023-03-22T07:29:46;19.90;55.10
16074;DHT22;8141;52.664;5.074;2023-03-22T07:32:12;19.90;55.10
16074;DHT22;8141;52.664;5.074;2023-03-22T07:34:38;19.90;55.10
16074;DHT22;8141;52.664;5.074;2023-03-22T07:37:04;19.90;55.10
16074;DHT22;8141;52.664;5.074;2023-03-22T07:39:30;19.90;55.10
16074;DHT22;8141;52.664;5.074;2023-03-22T07:41:55;19.90;55.20
16074;DHT22;8141;52.664;5.074;2023-03-22T07:44:21;19.90;55.20
16074;DHT22;8141;52.664;5.074;2023-03-22T07:46:47;19.90;55.20
16074;DHT22;8141;52.664;5.074;2023-03-22T07:49:15;19.90;55.10
16074;DHT22;8141;52.664;5.074;2023-03-22T07:51:40;19.90;55.10
16074;DHT22;8141;52.664;5.074;2023-03-22T07:54:06;19.90;55.20
16074;DHT22;8141;52.664;5.074;2023-03-22T07:56:32;19.90;55.10
16074;DHT22;8141;52.664;5.074;2023-03-22T07:58:57;19.90;55.30
16074;DHT22;8141;52.664;5.074;2023-03-22T08:01:23;19.90;55.10
16074;DHT22;8141;52.664;5.074;2023-03-22T08:03:49;19.90;55.10
16074;DHT22;8141;52.664;5.074;2023-03-22T08:06:15;19.90;55.20
16074;DHT22;8141;52.664;5.074;2023-03-22T08:08:43;19.90;55.30
16074;DHT22;8141;52.664;5.074;2023-03-22T08:11:08;19.90;55.30
16074;DHT22;8141;52.664;5.074;2023-03-22T08:13:34;19.90;55.30
16074;DHT22;8141;52.664;5.074;2023-03-22T08:16:00;19.90;55.20
16074;DHT22;8141;52.664;5.074;2023-03-22T08:18:25;19.90;55.20
16074;DHT22;8141;52.664;5.074;2023-03-22T08:20:55;19.90;55.20
16074;DHT22;8141;52.664;5.074;2023-03-22T08:23:22;19.90;55.20
16074;DHT22;8141;52.664;5.074;2023-03-22T08:25:48;19.90;55.30
16074;DHT22;8141;52.664;5.074;2023-03-22T08:28:14;19.90;55.20
16074;DHT22;8141;52.664;5.074;2023-03-22T08:30:40;19.90;55.30
16074;DHT22;8141;52.664;5.074;2023-03-22T08:33:07;19.90;55.20
16074;DHT22;8141;52.664;5.074;2023-03-22T08:35:33;19.90;55.30
16074;DHT22;8141;52.664;5.074;2023-03-22T08:37:58;19.90;55.30
16074;DHT22;8141;52.664;5.074;2023-03-22T08:40:25;19.90;55.20
16074;DHT22;8141;52.664;5.074;2023-03-22T08:42:51;19.90;55.30
16074;DHT22;8141;52.664;5.074;2023-03-22T08:45:17;20.00;55.40
16074;DHT22;8141;52.664;5.074;2023-03-22T08:47:43;19.90;55.30
16074;DHT22;8141;52.664;5.074;2023-03-22T08:50:09;20.00;55.40
16074;DHT22;8141;52.664;5.074;2023-03-22T08:52:35;19.90;55.40
16074;DHT22;8141;52.664;5.074;2023-03-22T08:55:01;19.90;55.40
16074;DHT22;8141;52.664;5.074;2023-03-22T08:57:27;20.00;55.40
16074;DHT22;8141;52.664;5.074;2023-03-22T08:59:54;19.90;55.40
16074;DHT22;8141;52.664;5.074;2023-03-22T09:02:22;19.90;56.00
16074;DHT22;8141;52.664;5.074;2023-03-22T09:04:48;20.00;55.80
16074;DHT22;8141;52.664;5.074;2023-03-22T09:07:14;19.90;55.50
16074;DHT22;8141;52.664;5.074;2023-03-22T09:09:41;20.00;55.60
16074;DHT22;8141;52.664;5.074;2023-03-22T09:12:07;20.00;55.60
16074;DHT22;8141;52.664;5.074;2023-03-22T09:14:34;20.00;55.60
16074;DHT22;8141;52.664;5.074;2023-03-22T09:17:00;20.00;55.50
16074;DHT22;8141;52.664;5.074;2023-03-22T09:19:26;20.00;55.40
16074;DHT22;8141;52.664;5.074;2023-03-22T09:21:52;20.00;55.40
16074;DHT22;8141;52.664;5.074;2023-03-22T09:24:18;20.00;55.40
16074;DHT22;8141;52.664;5.074;2023-03-22T09:26:44;19.90;55.30
16074;DHT22;8141;52.664;5.074;2023-03-22T09:29:11;20.00;55.30
16074;DHT22;8141;52.664;5.074;2023-03-22T09:31:37;20.00;55.30
16074;DHT22;8141;52.664;5.074;2023-03-22T09:34:03;19.90;55.20
16074;DHT22;8141;52.664;5.074;2023-03-22T09:36:28;19.90;55.20
16074;DHT22;8141;52.664;5.074;2023-03-22T09:38:56;20.00;55.30
16074;DHT22;8141;52.664;5.074;2023-03-22T09:41:33;20.00;55.30
16074;DHT22;8141;52.664;5.074;2023-03-22T09:44:02;20.00;55.20
16074;DHT22;8141;52.664;5.074;2023-03-22T09:46:31;19.90;55.20
16074;DHT22;8141;52.664;5.074;2023-03-22T09:49:02;20.00;55.30
16074;DHT22;8141;52.664;5.074;2023-03-22T09:56:45;19.90;54.90
16074;DHT22;8141;52.664;5.074;2023-03-22T10:10:45;20.00;55.00
16074;DHT22;8141;52.664;5.074;2023-03-22T10:15:50;20.00;55.10
16074;DHT22;8141;52.664;5.074;2023-03-22T10:18:42;20.00;55.10
16074;DHT22;8141;52.664;5.074;2023-03-22T10:21:12;20.00;55.10
16074;DHT22;8141;52.664;5.074;2023-03-22T10:23:56;20.00;55.10
16074;DHT22;8141;52.664;5.074;2023-03-22T10:26:30;20.00;55.10
16074;DHT22;8141;52.664;5.074;2023-03-22T10:29:01;20.00;55.10
16074;DHT22;8141;52.664;5.074;2023-03-22T10:31:33;20.00;55.10
16074;DHT22;8141;52.664;5.074;2023-03-22T10:34:26;20.00;55.00
16074;DHT22;8141;52.664;5.074;2023-03-22T10:36:55;20.00;55.40
16074;DHT22;8141;52.664;5.074;2023-03-22T10:39:38;20.00;55.50
16074;DHT22;8141;52.664;5.074;2023-03-22T10:42:24;20.00;55.50
16074;DHT22;8141;52.664;5.074;2023-03-22T10:44:56;19.90;55.60
16074;DHT22;8141;52.664;5.074;2023-03-22T10:50:12;19.90;55.60
16074;DHT22;8141;52.664;5.074;2023-03-22T10:52:54;20.00;55.60
16074;DHT22;8141;52.664;5.074;2023-03-22T10:55:24;19.90;55.60
16074;DHT22;8141;52.664;5.074;2023-03-22T11:00:49;19.90;56.30
16074;DHT22;8141;52.664;5.074;2023-03-22T11:09:31;19.90;55.80
16074;DHT22;8141;52.664;5.074;2023-03-22T11:11:55;19.80;55.70
16074;DHT22;8141;52.664;5.074;2023-03-22T11:14:43;19.80;55.60
16074;DHT22;8141;52.664;5.074;2023-03-22T11:17:11;19.90;55.70
16074;DHT22;8141;52.664;5.074;2023-03-22T11:19:54;19.90;55.60
16074;DHT22;8141;52.664;5.074;2023-03-22T11:25:15;19.90;55.70
16074;DHT22;8141;52.664;5.074;2023-03-22T11:27:51;19.80;55.70
16074;DHT22;8141;52.664;5.074;2023-03-22T11:30:27;19.80;56.30
16074;DHT22;8141;52.664;5.074;2023-03-22T11:33:17;19.80;55.70
16074;DHT22;8141;52.664;5.074;2023-03-22T11:35:46;19.80;55.70
16074;DHT22;8141;52.664;5.074;2023-03-22T11:41:04;19.80;55.60
16074;DHT22;8141;52.664;5.074;2023-03-22T11:43:44;19.80;55.60
16074;DHT22;8141;52.664;5.074;2023-03-22T11:46:15;19.80;55.60
16074;DHT22;8141;52.664;5.074;2023-03-22T11:48:45;19.80;55.60
16074;DHT22;8141;52.664;5.074;2023-03-22T11:51:36;19.80;55.60
16074;DHT22;8141;52.664;5.074;2023-03-22T11:54:09;19.80;55.70
16074;DHT22;8141;52.664;5.074;2023-03-22T11:56:47;19.80;55.60
16074;DHT22;8141;52.664;5.074;2023-03-22T11:59:23;19.80;55.60
16074;DHT22;8141;52.664;5.074;2023-03-22T12:02:12;19.80;55.60
16074;DHT22;8141;52.664;5.074;2023-03-22T12:04:43;19.80;55.60
16074;DHT22;8141;52.664;5.074;2023-03-22T12:07:28;19.80;55.70
16074;DHT22;8141;52.664;5.074;2023-03-22T12:10:18;19.80;55.60
16074;DHT22;8141;52.664;5.074;2023-03-22T12:12:54;19.80;55.90
16074;DHT22;8141;52.664;5.074;2023-03-22T12:15:30;19.80;55.80
16074;DHT22;8141;52.664;5.074;2023-03-22T12:18:09;19.80;55.80
16074;DHT22;8141;52.664;5.074;2023-03-22T12:23:25;19.80;55.80
16074;DHT22;8141;52.664;5.074;2023-03-22T12:26:19;19.80;55.90
16074;DHT22;8141;52.664;5.074;2023-03-22T12:34:08;19.80;55.70
16074;DHT22;8141;52.664;5.074;2023-03-22T12:36:40;19.80;55.70
16074;DHT22;8141;52.664;5.074;2023-03-22T12:39:12;19.80;55.60
16074;DHT22;8141;52.664;5.074;2023-03-22T12:42:03;19.80;55.70
16074;DHT22;8141;52.664;5.074;2023-03-22T12:44:41;19.80;55.50
16074;DHT22;8141;52.664;5.074;2023-03-22T12:50:16;19.80;55.50
16074;DHT22;8141;52.664;5.074;2023-03-22T12:52:52;19.80;55.50
16074;DHT22;8141;52.664;5.074;2023-03-22T12:55:33;19.80;55.60
16074;DHT22;8141;52.664;5.074;2023-03-22T12:58:00;19.80;55.60
16074;DHT22;8141;52.664;5.074;2023-03-22T13:00:38;19.80;55.60
16074;DHT22;8141;52.664;5.074;2023-03-22T13:05:44;19.80;55.50
16074;DHT22;8141;52.664;5.074;2023-03-22T13:08:17;19.80;55.50
16074;DHT22;8141;52.664;5.074;2023-03-22T13:11:04;19.80;56.10
16074;DHT22;8141;52.664;5.074;2023-03-22T13:13:40;19.80;55.40
16074;DHT22;8141;52.664;5.074;2023-03-22T13:23:54;19.80;55.40
16074;DHT22;8141;52.664;5.074;2023-03-22T13:29:07;19.80;55.30
16074;DHT22;8141;52.664;5.074;2023-03-22T13:32:02;19.80;55.30
16074;DHT22;8141;52.664;5.074;2023-03-22T13:37:33;19.80;55.30
16074;DHT22;8141;52.664;5.074;2023-03-22T13:43:10;19.80;55.30
16074;DHT22;8141;52.664;5.074;2023-03-22T13:46:01;19.80;55.50
16074;DHT22;8141;52.664;5.074;2023-03-22T13:48:41;19.80;55.30
16074;DHT22;8141;52.664;5.074;2023-03-22T14:05:13;19.80;55.40
16074;DHT22;8141;52.664;5.074;2023-03-22T14:07:41;19.90;55.40
16074;DHT22;8141;52.664;5.074;2023-03-22T14:15:57;19.80;55.50
16074;DHT22;8141;52.664;5.074;2023-03-22T14:18:30;19.90;55.60
16074;DHT22;8141;52.664;5.074;2023-03-22T14:21:00;19.90;55.60
16074;DHT22;8141;52.664;5.074;2023-03-22T14:23:41;19.90;55.60
16074;DHT22;8141;52.664;5.074;2023-03-22T14:26:25;19.80;55.80
16074;DHT22;8141;52.664;5.074;2023-03-22T14:29:07;19.80;55.80
16074;DHT22;8141;52.664;5.074;2023-03-22T14:31:46;19.80;55.80
16074;DHT22;8141;52.664;5.074;2023-03-22T14:34:21;19.80;55.70
16074;DHT22;8141;52.664;5.074;2023-03-22T14:36:48;19.80;55.80
16074;DHT22;8141;52.664;5.074;2023-03-22T14:39:21;19.80;55.90
16074;DHT22;8141;52.664;5.074;2023-03-22T14:42:05;19.80;55.90
16074;DHT22;8141;52.664;5.074;2023-03-22T14:44:46;19.80;55.80
16074;DHT22;8141;52.664;5.074;2023-03-22T14:47:18;19.80;55.80
16074;DHT22;8141;52.664;5.074;2023-03-22T14:49:48;19.80;55.90
16074;DHT22;8141;52.664;5.074;2023-03-22T14:52:30;19.80;55.90
16074;DHT22;8141;52.664;5.074;2023-03-22T14:55:00;19.80;55.90
16074;DHT22;8141;52.664;5.074;2023-03-22T14:57:31;19.70;56.00
16074;DHT22;8141;52.664;5.074;2023-03-22T15:00:01;19.70;56.10
16074;DHT22;8141;52.664;5.074;2023-03-22T15:02:38;19.70;56.10
16074;DHT22;8141;52.664;5.074;2023-03-22T15:05:22;19.70;56.10
16074;DHT22;8141;52.664;5.074;2023-03-22T15:10:25;19.80;56.00
16074;DHT22;8141;52.664;5.074;2023-03-22T15:12:54;19.80;56.00
16074;DHT22;8141;52.664;5.074;2023-03-22T15:15:25;19.90;56.10
16074;DHT22;8141;52.664;5.074;2023-03-22T15:17:53;19.80;55.90
16074;DHT22;8141;52.664;5.074;2023-03-22T15:20:25;19.90;55.80
16074;DHT22;8141;52.664;5.074;2023-03-22T15:22:55;19.90;55.80
16074;DHT22;8141;52.664;5.074;2023-03-22T15:25:31;19.80;55.90
16074;DHT22;8141;52.664;5.074;2023-03-22T15:28:05;19.80;56.00
16074;DHT22;8141;52.664;5.074;2023-03-22T15:30:34;19.80;55.90
16074;DHT22;8141;52.664;5.074;2023-03-22T15:33:07;19.80;56.00
16074;DHT22;8141;52.664;5.074;2023-03-22T15:35:39;19.80;56.10
16074;DHT22;8141;52.664;5.074;2023-03-22T15:38:05;19.80;56.10
16074;DHT22;8141;52.664;5.074;2023-03-22T15:40:39;19.80;56.10
16074;DHT22;8141;52.664;5.074;2023-03-22T15:43:19;19.80;56.10
16074;DHT22;8141;52.664;5.074;2023-03-22T15:46:18;19.80;56.30
16074;DHT22;8141;52.664;5.074;2023-03-22T15:51:28;19.70;56.30
16074;DHT22;8141;52.664;5.074;2023-03-22T15:54:03;19.80;56.30
16074;DHT22;8141;52.664;5.074;2023-03-22T15:56:33;19.80;56.30
16074;DHT22;8141;52.664;5.074;2023-03-22T15:59:02;19.80;56.20
16074;DHT22;8141;52.664;5.074;2023-03-22T16:01:34;19.80;56.50
16074;DHT22;8141;52.664;5.074;2023-03-22T16:04:17;19.80;56.20
16074;DHT22;8141;52.664;5.074;2023-03-22T16:06:48;19.80;56.20
16074;DHT22;8141;52.664;5.074;2023-03-22T16:09:14;19.80;56.20
16074;DHT22;8141;52.664;5.074;2023-03-22T16:11:41;19.80;56.20
16074;DHT22;8141;52.664;5.074;2023-03-22T16:14:13;19.80;56.70
16074;DHT22;8141;52.664;5.074;2023-03-22T16:16:41;19.80;56.20
16074;DHT22;8141;52.664;5.074;2023-03-22T16:19:07;19.80;56.10
16074;DHT22;8141;52.664;5.074;2023-03-22T16:21:33;19.80;56.20
16074;DHT22;8141;52.664;5.074;2023-03-22T16:24:00;19.80;56.20
16074;DHT22;8141;52.664;5.074;2023-03-22T16:26:28;19.80;56.10
16074;DHT22;8141;52.664;5.074;2023-03-22T16:28:54;19.80;56.50
16074;DHT22;8141;52.664;5.074;2023-03-22T16:31:21;19.80;56.30
16074;DHT22;8141;52.664;5.074;2023-03-22T16:33:48;19.80;56.40
16074;DHT22;8141;52.664;5.074;2023-03-22T16:36:16;19.80;56.50
16074;DHT22;8141;52.664;5.074;2023-03-22T16:38:43;19.70;56.70
16074;DHT22;8141;52.664;5.074;2023-03-22T16:41:26;19.70;56.80
16074;DHT22;8141;52.664;5.074;2023-03-22T16:43:55;19.70;56.80
16074;DHT22;8141;52.664;5.074;2023-03-22T16:46:22;19.60;56.70
16074;DHT22;8141;52.664;5.074;2023-03-22T16:48:48;19.60;56.90
16074;DHT22;8141;52.664;5.074;2023-03-22T16:51:25;19.60;56.90
16074;DHT22;8141;52.664;5.074;2023-03-22T16:53:55;19.60;57.00
16074;DHT22;8141;52.664;5.074;2023-03-22T16:56:23;19.60;56.90
16074;DHT22;8141;52.664;5.074;2023-03-22T16:58:53;19.60;56.90
16074;DHT22;8141;52.664;5.074;2023-03-22T17:01:20;19.60;56.80
16074;DHT22;8141;52.664;5.074;2023-03-22T17:03:47;19.70;56.60
16074;DHT22;8141;52.664;5.074;2023-03-22T17:06:19;19.70;57.10
16074;DHT22;8141;52.664;5.074;2023-03-22T17:08:48;19.70;56.70
16074;DHT22;8141;52.664;5.074;2023-03-22T17:11:25;19.70;56.70
16074;DHT22;8141;52.664;5.074;2023-03-22T17:13:55;19.70;56.90
16074;DHT22;8141;52.664;5.074;2023-03-22T17:16:25;19.70;56.60
16074;DHT22;8141;52.664;5.074;2023-03-22T17:18:51;19.70;56.70
16074;DHT22;8141;52.664;5.074;2023-03-22T17:21:18;19.70;56.80
16074;DHT22;8141;52.664;5.074;2023-03-22T17:23:46;19.70;56.80
16074;DHT22;8141;52.664;5.074;2023-03-22T17:26:14;19.70;56.70
16074;DHT22;8141;52.664;5.074;2023-03-22T17:28:42;19.70;56.80
16074;DHT22;8141;52.664;5.074;2023-03-22T17:31:09;19.70;56.90
16074;DHT22;8141;52.664;5.074;2023-03-22T17:33:38;19.70;57.00
16074;DHT22;8141;52.664;5.074;2023-03-22T17:36:04;19.60;57.00
16074;DHT22;8141;52.664;5.074;2023-03-22T17:38:30;19.60;57.10
16074;DHT22;8141;52.664;5.074;2023-03-22T17:40:56;19.70;56.80
16074;DHT22;8141;52.664;5.074;2023-03-22T17:43:21;19.70;56.90
16074;DHT22;8141;52.664;5.074;2023-03-22T17:45:47;19.70;57.00
16074;DHT22;8141;52.664;5.074;2023-03-22T17:48:13;19.70;57.00
16074;DHT22;8141;52.664;5.074;2023-03-22T17:50:39;19.70;57.00
16074;DHT22;8141;52.664;5.074;2023-03-22T17:53:06;19.70;56.90
16074;DHT22;8141;52.664;5.074;2023-03-22T17:55:34;19.80;56.80
16074;DHT22;8141;52.664;5.074;2023-03-22T17:58:01;19.70;56.80
16074;DHT22;8141;52.664;5.074;2023-03-22T18:00:28;19.70;57.00
16074;DHT22;8141;52.664;5.074;2023-03-22T18:02:54;19.80;57.00
16074;DHT22;8141;52.664;5.074;2023-03-22T18:05:22;19.70;56.90
16074;DHT22;8141;52.664;5.074;2023-03-22T18:07:50;19.70;57.00
16074;DHT22;8141;52.664;5.074;2023-03-22T18:10:17;19.70;56.90
16074;DHT22;8141;52.664;5.074;2023-03-22T18:12:45;19.70;57.00
16074;DHT22;8141;52.664;5.074;2023-03-22T18:15:14;19.70;57.00
16074;DHT22;8141;52.664;5.074;2023-03-22T18:17:42;19.70;57.00
16074;DHT22;8141;52.664;5.074;2023-03-22T18:20:10;19.80;56.90
16074;DHT22;8141;52.664;5.074;2023-03-22T18:22:38;19.80;57.00
16074;DHT22;8141;52.664;5.074;2023-03-22T18:25:04;19.80;57.20
16074;DHT22;8141;52.664;5.074;2023-03-22T18:27:32;19.80;56.80
16074;DHT22;8141;52.664;5.074;2023-03-22T18:29:57;19.80;56.90